sensor_id;sensor_type;location;lat;lon;timestamp;pressure;altitude;pressure_sealevel;temperature;humidity
49451;BME280;35336;48.400;10.886;2023-07-31T00:00:00;96396.56;;;14.94;80.28
49451;BME280;35336;48.400;10.886;2023-07-31T00:00:15;96396.56;;;14.94;80.22
49451;BME280;35336;48.400;10.886;2023-07-31T00:00:30;96401.13;;;14.93;80.22
49451;BME280;35336;48.400;10.886;2023-07-31T00:00:45;96392.00;;;14.95;80.31
49451;BME280;35336;48.400;10.886;2023-07-31T00:01:01;96400.91;;;14.95;80.45
49451;BME280;35336;48.400;10.886;2023-07-31T00:01:16;96390.59;;;14.92;80.52
49451;BME280;35336;48.400;10.886;2023-07-31T00:01:31;96396.34;;;14.96;80.28
49451;BME280;35336;48.400;10.886;2023-07-31T00:01:47;96393.06;;;14.93;79.88
49451;BME280;35336;48.400;10.886;2023-07-31T00:02:02;96401.69;;;14.96;79.93
49451;BME280;35336;48.400;10.886;2023-07-31T00:02:19;96377.03;;;14.87;80.04
49451;BME280;35336;48.400;10.886;2023-07-31T00:02:35;96392.22;;;14.93;80.08
49451;BME280;35336;48.400;10.886;2023-07-31T00:02:52;96387.09;;;14.91;80.56
49451;BME280;35336;48.400;10.886;2023-07-31T00:03:07;96399.00;;;14.96;80.46
49451;BME280;35336;48.400;10.886;2023-07-31T00:03:26;96388.13;;;14.90;80.63
49451;BME280;35336;48.400;10.886;2023-07-31T00:03:41;96393.66;;;14.96;80.77
49451;BME280;35336;48.400;10.886;2023-07-31T00:03:58;96382.78;;;14.90;80.69
49451;BME280;35336;48.400;10.886;2023-07-31T00:04:16;96380.88;;;14.91;80.66
49451;BME280;35336;48.400;10.886;2023-07-31T00:04:31;96391.81;;;14.96;80.60
49451;BME280;35336;48.400;10.886;2023-07-31T00:04:49;96399.63;;;14.98;80.99
49451;BME280;35336;48.400;10.886;2023-07-31T00:05:04;96385.69;;;14.89;80.75
49451;BME280;35336;48.400;10.886;2023-07-31T00:05:20;96383.38;;;14.92;80.88
49451;BME280;35336;48.400;10.886;2023-07-31T00:05:36;96399.00;;;14.96;81.09
49451;BME280;35336;48.400;10.886;2023-07-31T00:05:53;96394.53;;;14.89;81.24
49451;BME280;35336;48.400;10.886;2023-07-31T00:06:09;96390.81;;;14.90;81.05
49451;BME280;35336;48.400;10.886;2023-07-31T00:06:26;96375.00;;;14.82;81.17
49451;BME280;35336;48.400;10.886;2023-07-31T00:06:44;96397.84;;;14.91;81.55
49451;BME280;35336;48.400;10.886;2023-07-31T00:06:59;96393.50;;;14.90;81.53
49451;BME280;35336;48.400;10.886;2023-07-31T00:07:14;96390.22;;;14.88;81.53
49451;BME280;35336;48.400;10.886;2023-07-31T00:07:31;96393.72;;;14.89;81.71
49451;BME280;35336;48.400;10.886;2023-07-31T00:07:48;96399.31;;;14.87;81.76
49451;BME280;35336;48.400;10.886;2023-07-31T00:08:03;96392.09;;;14.88;81.81
49451;BME280;35336;48.400;10.886;2023-07-31T00:08:19;96372.84;;;14.72;82.05
49451;BME280;35336;48.400;10.886;2023-07-31T00:08:34;96391.25;;;14.87;81.97
49451;BME280;35336;48.400;10.886;2023-07-31T00:08:49;96386.34;;;14.84;81.91
49451;BME280;35336;48.400;10.886;2023-07-31T00:09:08;96386.78;;;14.81;81.77
49451;BME280;35336;48.400;10.886;2023-07-31T00:09:25;96396.63;;;14.87;82.04
49451;BME280;35336;48.400;10.886;2023-07-31T00:09:43;96395.44;;;14.83;81.85
49451;BME280;35336;48.400;10.886;2023-07-31T00:09:58;96387.66;;;14.75;82.17
49451;BME280;35336;48.400;10.886;2023-07-31T00:10:16;96390.31;;;14.82;82.27
49451;BME280;35336;48.400;10.886;2023-07-31T00:10:34;96390.06;;;14.83;82.25
49451;BME280;35336;48.400;10.886;2023-07-31T00:10:53;96387.81;;;14.80;82.31
49451;BME280;35336;48.400;10.886;2023-07-31T00:11:09;96385.75;;;14.82;82.03
49451;BME280;35336;48.400;10.886;2023-07-31T00:11:26;96376.13;;;14.74;82.26
49451;BME280;35336;48.400;10.886;2023-07-31T00:11:44;96376.94;;;14.75;82.28
49451;BME280;35336;48.400;10.886;2023-07-31T00:11:59;96381.03;;;14.77;82.34
49451;BME280;35336;48.400;10.886;2023-07-31T00:12:17;96377.97;;;14.74;82.45
49451;BME280;35336;48.400;10.886;2023-07-31T00:12:35;96388.28;;;14.77;82.38
49451;BME280;35336;48.400;10.886;2023-07-31T00:12:50;96392.59;;;14.78;82.53
49451;BME280;35336;48.400;10.886;2023-07-31T00:13:05;96393.03;;;14.75;82.35
49451;BME280;35336;48.400;10.886;2023-07-31T00:13:20;96381.94;;;14.71;82.27
49451;BME280;35336;48.400;10.886;2023-07-31T00:13:36;96382.31;;;14.75;82.79
49451;BME280;35336;48.400;10.886;2023-07-31T00:13:53;96391.19;;;14.75;83.11
49451;BME280;35336;48.400;10.886;2023-07-31T00:14:08;96388.50;;;14.75;82.62
49451;BME280;35336;48.400;10.886;2023-07-31T00:14:26;96387.66;;;14.75;83.14
49451;BME280;35336;48.400;10.886;2023-07-31T00:14:41;96392.00;;;14.76;83.59
49451;BME280;35336;48.400;10.886;2023-07-31T00:14:59;96387.66;;;14.75;83.45
49451;BME280;35336;48.400;10.886;2023-07-31T00:15:17;96383.19;;;14.69;83.69
49451;BME280;35336;48.400;10.886;2023-07-31T00:15:35;96382.75;;;14.72;83.64
49451;BME280;35336;48.400;10.886;2023-07-31T00:15:50;96379.09;;;14.66;83.74
49451;BME280;35336;48.400;10.886;2023-07-31T00:16:08;96387.28;;;14.71;83.67
49451;BME280;35336;48.400;10.886;2023-07-31T00:16:23;96384.84;;;14.70;83.65
49451;BME280;35336;48.400;10.886;2023-07-31T00:16:38;96386.25;;;14.72;83.77
49451;BME280;35336;48.400;10.886;2023-07-31T00:16:56;96382.97;;;14.70;83.75
49451;BME280;35336;48.400;10.886;2023-07-31T00:17:11;96383.81;;;14.71;83.58
49451;BME280;35336;48.400;10.886;2023-07-31T00:17:29;96384.22;;;14.68;83.64
49451;BME280;35336;48.400;10.886;2023-07-31T00:17:47;96390.59;;;14.73;83.58
49451;BME280;35336;48.400;10.886;2023-07-31T00:18:02;96379.47;;;14.70;83.51
49451;BME280;35336;48.400;10.886;2023-07-31T00:18:22;96381.13;;;14.71;83.62
49451;BME280;35336;48.400;10.886;2023-07-31T00:18:42;96390.81;;;14.72;83.45
49451;BME280;35336;48.400;10.886;2023-07-31T00:18:59;96382.75;;;14.72;83.60
49451;BME280;35336;48.400;10.886;2023-07-31T00:19:17;96382.75;;;14.72;83.51
49451;BME280;35336;48.400;10.886;2023-07-31T00:19:34;96387.06;;;14.73;82.79
49451;BME280;35336;48.400;10.886;2023-07-31T00:19:50;96388.13;;;14.72;83.13
49451;BME280;35336;48.400;10.886;2023-07-31T00:20:08;96378.88;;;14.68;83.09
49451;BME280;35336;48.400;10.886;2023-07-31T00:20:23;96388.56;;;14.69;82.72
49451;BME280;35336;48.400;10.886;2023-07-31T00:20:40;96387.53;;;14.70;82.58
49451;BME280;35336;48.400;10.886;2023-07-31T00:20:58;96385.88;;;14.69;82.06
49451;BME280;35336;48.400;10.886;2023-07-31T00:21:16;96384.00;;;14.69;81.67
49451;BME280;35336;48.400;10.886;2023-07-31T00:21:31;96386.09;;;14.67;81.62
49451;BME280;35336;48.400;10.886;2023-07-31T00:21:47;96379.50;;;14.63;81.60
49451;BME280;35336;48.400;10.886;2023-07-31T00:22:02;96393.94;;;14.69;81.67
49451;BME280;35336;48.400;10.886;2023-07-31T00:22:17;96388.78;;;14.67;81.56
49451;BME280;35336;48.400;10.886;2023-07-31T00:22:33;96388.56;;;14.69;81.74
49451;BME280;35336;48.400;10.886;2023-07-31T00:22:48;96375.00;;;14.57;82.06
49451;BME280;35336;48.400;10.886;2023-07-31T00:23:05;96388.56;;;14.69;81.89
49451;BME280;35336;48.400;10.886;2023-07-31T00:23:23;96384.47;;;14.66;81.84
49451;BME280;35336;48.400;10.886;2023-07-31T00:23:38;96385.66;;;14.70;81.78
49451;BME280;35336;48.400;10.886;2023-07-31T00:23:56;96378.25;;;14.66;81.45
49451;BME280;35336;48.400;10.886;2023-07-31T00:24:13;96388.31;;;14.70;81.57
49451;BME280;35336;48.400;10.886;2023-07-31T00:24:29;96384.84;;;14.70;81.04
49451;BME280;35336;48.400;10.886;2023-07-31T00:24:44;96385.66;;;14.70;81.31
49451;BME280;35336;48.400;10.886;2023-07-31T00:24:59;96389.16;;;14.71;81.72
49451;BME280;35336;48.400;10.886;2023-07-31T00:25:14;96376.78;;;14.70;81.82
49451;BME280;35336;48.400;10.886;2023-07-31T00:25:32;96384.00;;;14.69;82.38
49451;BME280;35336;48.400;10.886;2023-07-31T00:25:47;96375.41;;;14.60;82.69
49451;BME280;35336;48.400;10.886;2023-07-31T00:26:05;96386.91;;;14.68;82.47
49451;BME280;35336;48.400;10.886;2023-07-31T00:26:20;96386.91;;;14.68;82.43
49451;BME280;35336;48.400;10.886;2023-07-31T00:26:35;96384.47;;;14.66;82.32
49451;BME280;35336;48.400;10.886;2023-07-31T00:26:51;96366.97;;;14.57;82.36
49451;BME280;35336;48.400;10.886;2023-07-31T00:27:06;96387.16;;;14.66;81.98
49451;BME280;35336;48.400;10.886;2023-07-31T00:27:23;96392.50;;;14.66;81.71
49451;BME280;35336;48.400;10.886;2023-07-31T00:27:41;96389.19;;;14.64;81.93
49451;BME280;35336;48.400;10.886;2023-07-31T00:27:59;96391.88;;;14.64;81.74
49451;BME280;35336;48.400;10.886;2023-07-31T00:28:16;96380.75;;;14.60;81.44
49451;BME280;35336;48.400;10.886;2023-07-31T00:28:34;96389.41;;;14.63;81.06
49451;BME280;35336;48.400;10.886;2023-07-31T00:28:49;96387.78;;;14.61;80.94
49451;BME280;35336;48.400;10.886;2023-07-31T00:29:05;96385.69;;;14.64;80.92
49451;BME280;35336;48.400;10.886;2023-07-31T00:29:22;96383.66;;;14.59;80.69
49451;BME280;35336;48.400;10.886;2023-07-31T00:29:38;96389.81;;;14.66;80.89
49451;BME280;35336;48.400;10.886;2023-07-31T00:29:53;96387.16;;;14.66;80.59
49451;BME280;35336;48.400;10.886;2023-07-31T00:30:08;96375.41;;;14.60;80.51
49451;BME280;35336;48.400;10.886;2023-07-31T00:30:24;96395.56;;;14.70;80.01
49451;BME280;35336;48.400;10.886;2023-07-31T00:30:42;96373.16;;;14.57;79.98
49451;BME280;35336;48.400;10.886;2023-07-31T00:31:00;96390.63;;;14.67;80.07
49451;BME280;35336;48.400;10.886;2023-07-31T00:31:15;96386.91;;;14.68;80.03
49451;BME280;35336;48.400;10.886;2023-07-31T00:31:30;96395.56;;;14.70;80.44
49451;BME280;35336;48.400;10.886;2023-07-31T00:31:48;96375.41;;;14.60;80.59
49451;BME280;35336;48.400;10.886;2023-07-31T00:32:04;96376.22;;;14.61;80.63
49451;BME280;35336;48.400;10.886;2023-07-31T00:32:23;96391.84;;;14.71;80.57
49451;BME280;35336;48.400;10.886;2023-07-31T00:32:38;96383.22;;;14.62;80.70
49451;BME280;35336;48.400;10.886;2023-07-31T00:32:56;96394.72;;;14.69;80.38
49451;BME280;35336;48.400;10.886;2023-07-31T00:33:11;96388.78;;;14.67;80.12
49451;BME280;35336;48.400;10.886;2023-07-31T00:33:27;96386.91;;;14.68;80.26
49451;BME280;35336;48.400;10.886;2023-07-31T00:33:45;96387.16;;;14.66;80.23
49451;BME280;35336;48.400;10.886;2023-07-31T00:34:00;96389.00;;;14.66;80.26
49451;BME280;35336;48.400;10.886;2023-07-31T00:34:16;96383.41;;;14.67;80.08
49451;BME280;35336;48.400;10.886;2023-07-31T00:34:33;96379.91;;;14.67;80.45
49451;BME280;35336;48.400;10.886;2023-07-31T00:34:49;96388.31;;;14.70;80.57
49451;BME280;35336;48.400;10.886;2023-07-31T00:35:04;96385.44;;;14.72;80.81
49451;BME280;35336;48.400;10.886;2023-07-31T00:35:23;96385.88;;;14.69;80.98
49451;BME280;35336;48.400;10.886;2023-07-31T00:35:40;96390.63;;;14.67;79.82
49451;BME280;35336;48.400;10.886;2023-07-31T00:36:00;96389.00;;;14.66;80.20
49451;BME280;35336;48.400;10.886;2023-07-31T00:36:16;96384.06;;;14.63;80.38
49451;BME280;35336;48.400;10.886;2023-07-31T00:36:31;96388.16;;;14.65;80.18
49451;BME280;35336;48.400;10.886;2023-07-31T00:36:46;96389.19;;;14.64;80.21
49451;BME280;35336;48.400;10.886;2023-07-31T00:37:04;96381.38;;;14.63;80.25
49451;BME280;35336;48.400;10.886;2023-07-31T00:37:19;96387.53;;;14.63;79.88
49451;BME280;35336;48.400;10.886;2023-07-31T00:37:35;96385.69;;;14.64;80.51
49451;BME280;35336;48.400;10.886;2023-07-31T00:37:50;96383.81;;;14.64;80.42
49451;BME280;35336;48.400;10.886;2023-07-31T00:38:05;96389.00;;;14.66;80.87
49451;BME280;35336;48.400;10.886;2023-07-31T00:38:21;96379.28;;;14.65;81.22
49451;BME280;35336;48.400;10.886;2023-07-31T00:38:39;96385.28;;;14.67;81.35
49451;BME280;35336;48.400;10.886;2023-07-31T00:38:54;96386.91;;;14.68;81.28
49451;BME280;35336;48.400;10.886;2023-07-31T00:39:09;96377.41;;;14.65;80.90
49451;BME280;35336;48.400;10.886;2023-07-31T00:39:25;96383.63;;;14.66;80.74
49451;BME280;35336;48.400;10.886;2023-07-31T00:39:40;96383.63;;;14.66;80.52
49451;BME280;35336;48.400;10.886;2023-07-31T00:39:57;96389.00;;;14.66;80.40
49451;BME280;35336;48.400;10.886;2023-07-31T00:40:13;96379.13;;;14.59;80.17
49451;BME280;35336;48.400;10.886;2023-07-31T00:40:28;96386.31;;;14.66;79.85
49451;BME280;35336;48.400;10.886;2023-07-31T00:40:46;96377.66;;;14.64;79.60
49451;BME280;35336;48.400;10.886;2023-07-31T00:41:01;96382.78;;;14.65;79.74
49451;BME280;35336;48.400;10.886;2023-07-31T00:41:18;96382.78;;;14.65;79.68
49451;BME280;35336;48.400;10.886;2023-07-31T00:41:34;96367.81;;;14.57;79.69
49451;BME280;35336;48.400;10.886;2023-07-31T00:41:54;96376.41;;;14.66;79.79
49451;BME280;35336;48.400;10.886;2023-07-31T00:42:11;96379.69;;;14.68;79.85
49451;BME280;35336;48.400;10.886;2023-07-31T00:42:29;96378.63;;;14.69;80.24
49451;BME280;35336;48.400;10.886;2023-07-31T00:42:45;96381.53;;;14.68;80.02
49451;BME280;35336;48.400;10.886;2023-07-31T00:43:00;96382.59;;;14.67;79.29
49451;BME280;35336;48.400;10.886;2023-07-31T00:43:15;96365.94;;;14.58;79.19
49451;BME280;35336;48.400;10.886;2023-07-31T00:43:30;96374.97;;;14.64;79.62
49451;BME280;35336;48.400;10.886;2023-07-31T00:43:46;96376.19;;;14.68;79.99
49451;BME280;35336;48.400;10.886;2023-07-31T00:44:01;96375.13;;;14.69;79.84
49451;BME280;35336;48.400;10.886;2023-07-31T00:44:16;96377.03;;;14.68;79.85
49451;BME280;35336;48.400;10.886;2023-07-31T00:44:34;96372.28;;;14.64;79.60
49451;BME280;35336;48.400;10.886;2023-07-31T00:44:52;96379.91;;;14.67;79.45
49451;BME280;35336;48.400;10.886;2023-07-31T00:45:07;96380.50;;;14.69;79.47
49451;BME280;35336;48.400;10.886;2023-07-31T00:45:25;96368.13;;;14.68;79.40
49451;BME280;35336;48.400;10.886;2023-07-31T00:45:41;96376.78;;;14.70;79.34
49451;BME280;35336;48.400;10.886;2023-07-31T00:45:56;96356.38;;;14.62;79.05
49451;BME280;35336;48.400;10.886;2023-07-31T00:46:11;96373.06;;;14.71;79.05
49451;BME280;35336;48.400;10.886;2023-07-31T00:46:29;96372.84;;;14.72;79.24
49451;BME280;35336;48.400;10.886;2023-07-31T00:46:46;96375.94;;;14.69;79.71
49451;BME280;35336;48.400;10.886;2023-07-31T00:47:04;96377.03;;;14.68;79.96
49451;BME280;35336;48.400;10.886;2023-07-31T00:47:19;96373.25;;;14.69;79.74
49451;BME280;35336;48.400;10.886;2023-07-31T00:47:37;96373.50;;;14.68;79.34
49451;BME280;35336;48.400;10.886;2023-07-31T00:47:55;96375.38;;;14.67;79.37
49451;BME280;35336;48.400;10.886;2023-07-31T00:48:11;96365.44;;;14.68;79.44
49451;BME280;35336;48.400;10.886;2023-07-31T00:48:28;96381.69;;;14.73;79.08
49451;BME280;35336;48.400;10.886;2023-07-31T00:48:46;96379.00;;;14.73;79.28
49451;BME280;35336;48.400;10.886;2023-07-31T00:49:05;96362.16;;;14.66;79.31
49451;BME280;35336;48.400;10.886;2023-07-31T00:49:21;96374.72;;;14.72;79.65
49451;BME280;35336;48.400;10.886;2023-07-31T00:49:42;96374.25;;;14.75;79.41
49451;BME280;35336;48.400;10.886;2023-07-31T00:49:58;96374.25;;;14.75;79.69
49451;BME280;35336;48.400;10.886;2023-07-31T00:50:13;96373.44;;;14.74;79.77
49451;BME280;35336;48.400;10.886;2023-07-31T00:50:31;96376.31;;;14.73;79.24
49451;BME280;35336;48.400;10.886;2023-07-31T00:50:50;96379.63;;;14.75;79.02
49451;BME280;35336;48.400;10.886;2023-07-31T00:51:09;96374.25;;;14.75;79.23
49451;BME280;35336;48.400;10.886;2023-07-31T00:51:25;96371.19;;;14.71;78.97
49451;BME280;35336;48.400;10.886;2023-07-31T00:51:40;96383.81;;;14.71;78.78
49451;BME280;35336;48.400;10.886;2023-07-31T00:51:56;96381.94;;;14.71;78.77
49451;BME280;35336;48.400;10.886;2023-07-31T00:52:13;96370.81;;;14.68;78.38
49451;BME280;35336;48.400;10.886;2023-07-31T00:52:33;96362.16;;;14.66;78.29
49451;BME280;35336;48.400;10.886;2023-07-31T00:52:51;96354.38;;;14.57;78.43
49451;BME280;35336;48.400;10.886;2023-07-31T00:53:07;96378.22;;;14.72;78.19
49451;BME280;35336;48.400;10.886;2023-07-31T00:53:27;96379.25;;;14.71;78.02
49451;BME280;35336;48.400;10.886;2023-07-31T00:53:42;96365.22;;;14.69;78.02
49451;BME280;35336;48.400;10.886;2023-07-31T00:53:58;96370.38;;;14.71;78.14
49451;BME280;35336;48.400;10.886;2023-07-31T00:54:13;96366.06;;;14.70;78.03
49451;BME280;35336;48.400;10.886;2023-07-31T00:54:29;96375.28;;;14.74;78.59
49451;BME280;35336;48.400;10.886;2023-07-31T00:54:50;96372.47;;;14.69;78.93
49451;BME280;35336;48.400;10.886;2023-07-31T00:55:08;96377.41;;;14.72;78.69
49451;BME280;35336;48.400;10.886;2023-07-31T00:55:23;96378.81;;;14.74;78.79
49451;BME280;35336;48.400;10.886;2023-07-31T00:55:39;96374.72;;;14.72;78.67
49451;BME280;35336;48.400;10.886;2023-07-31T00:55:57;96380.66;;;14.74;78.46
49451;BME280;35336;48.400;10.886;2023-07-31T00:56:13;96380.47;;;14.75;78.69
49451;BME280;35336;48.400;10.886;2023-07-31T00:56:28;96378.81;;;14.74;78.51
49451;BME280;35336;48.400;10.886;2023-07-31T00:56:45;96380.66;;;14.74;78.38
49451;BME280;35336;48.400;10.886;2023-07-31T00:57:03;96381.69;;;14.73;78.66
49451;BME280;35336;48.400;10.886;2023-07-31T00:57:20;96376.56;;;14.71;78.88
49451;BME280;35336;48.400;10.886;2023-07-31T00:57:36;96383.56;;;14.72;78.88
49451;BME280;35336;48.400;10.886;2023-07-31T00:57:53;96379.47;;;14.70;78.77
49451;BME280;35336;48.400;10.886;2023-07-31T00:58:08;96372.28;;;14.64;78.16
49451;BME280;35336;48.400;10.886;2023-07-31T00:58:23;96374.09;;;14.70;78.17
49451;BME280;35336;48.400;10.886;2023-07-31T00:58:39;96379.09;;;14.66;78.21
49451;BME280;35336;48.400;10.886;2023-07-31T00:58:55;96371.69;;;14.61;78.14
49451;BME280;35336;48.400;10.886;2023-07-31T00:59:10;96373.31;;;14.63;78.34
49451;BME280;35336;48.400;10.886;2023-07-31T00:59:26;96383.81;;;14.71;78.77
49451;BME280;35336;48.400;10.886;2023-07-31T00:59:41;96376.78;;;14.70;78.85
49451;BME280;35336;48.400;10.886;2023-07-31T00:59:58;96379.47;;;14.70;78.53
49451;BME280;35336;48.400;10.886;2023-07-31T01:00:13;96381.13;;;14.71;78.51
49451;BME280;35336;48.400;10.886;2023-07-31T01:00:29;96374.53;;;14.67;78.67
49451;BME280;35336;48.400;10.886;2023-07-31T01:00:44;96377.41;;;14.72;78.17
49451;BME280;35336;48.400;10.886;2023-07-31T01:01:02;96380.66;;;14.74;78.06
49451;BME280;35336;48.400;10.886;2023-07-31T01:01:18;96376.78;;;14.70;77.42
49451;BME280;35336;48.400;10.886;2023-07-31T01:01:33;96374.09;;;14.70;77.64
49451;BME280;35336;48.400;10.886;2023-07-31T01:01:49;96379.47;;;14.70;77.36
49451;BME280;35336;48.400;10.886;2023-07-31T01:02:07;96384.84;;;14.70;77.71
49451;BME280;35336;48.400;10.886;2023-07-31T01:02:22;96381.13;;;14.71;78.07
49451;BME280;35336;48.400;10.886;2023-07-31T01:02:38;96378.63;;;14.69;78.56
49451;BME280;35336;48.400;10.886;2023-07-31T01:02:55;96371.03;;;14.66;78.67
49451;BME280;35336;48.400;10.886;2023-07-31T01:03:11;96373.50;;;14.68;78.63
49451;BME280;35336;48.400;10.886;2023-07-31T01:03:27;96377.81;;;14.69;78.50
49451;BME280;35336;48.400;10.886;2023-07-31T01:03:42;96374.09;;;14.70;78.16
49451;BME280;35336;48.400;10.886;2023-07-31T01:03:58;96373.72;;;14.66;78.33
49451;BME280;35336;48.400;10.886;2023-07-31T01:04:13;96370.88;;;14.61;78.31
49451;BME280;35336;48.400;10.886;2023-07-31T01:04:31;96377.03;;;14.61;77.89
49451;BME280;35336;48.400;10.886;2023-07-31T01:04:47;96371.28;;;14.58;77.84
49451;BME280;35336;48.400;10.886;2023-07-31T01:05:05;96375.41;;;14.60;77.86
49451;BME280;35336;48.400;10.886;2023-07-31T01:05:33;96376.66;;;14.58;78.27
49451;BME280;35336;48.400;10.886;2023-07-31T01:07:01;96374.78;;;14.58;78.92
49451;BME280;35336;48.400;10.886;2023-07-31T01:07:50;96376.06;;;14.56;78.78
49451;BME280;35336;48.400;10.886;2023-07-31T01:08:33;96376.06;;;14.56;78.46
49451;BME280;35336;48.400;10.886;2023-07-31T01:10:23;96373.38;;;14.56;78.17
49451;BME280;35336;48.400;10.886;2023-07-31T01:10:55;96370.50;;;14.57;78.35
49451;BME280;35336;48.400;10.886;2023-07-31T01:11:28;96364.06;;;14.58;78.49
49451;BME280;35336;48.400;10.886;2023-07-31T01:11:52;96363.47;;;14.56;78.80
49451;BME280;35336;48.400;10.886;2023-07-31T01:12:09;96360.19;;;14.54;78.96
49451;BME280;35336;48.400;10.886;2023-07-31T01:12:31;96368.84;;;14.56;78.81
49451;BME280;35336;48.400;10.886;2023-07-31T01:12:47;96366.16;;;14.56;78.58
49451;BME280;35336;48.400;10.886;2023-07-31T01:13:03;96362.88;;;14.54;78.29
49451;BME280;35336;48.400;10.886;2023-07-31T01:13:21;96362.63;;;14.56;78.23
49451;BME280;35336;48.400;10.886;2023-07-31T01:13:36;96365.31;;;14.56;78.33
49451;BME280;35336;48.400;10.886;2023-07-31T01:13:54;96359.38;;;14.54;77.79
49451;BME280;35336;48.400;10.886;2023-07-31T01:14:09;96367.81;;;14.57;77.81
49451;BME280;35336;48.400;10.886;2023-07-31T01:14:25;96358.91;;;14.57;77.75
49451;BME280;35336;48.400;10.886;2023-07-31T01:14:52;96357.28;;;14.56;77.69
49451;BME280;35336;48.400;10.886;2023-07-31T01:15:17;96370.25;;;14.59;77.96
49451;BME280;35336;48.400;10.886;2023-07-31T01:15:34;96353.59;;;14.50;77.94
49451;BME280;35336;48.400;10.886;2023-07-31T01:15:52;96366.72;;;14.58;78.01
49451;BME280;35336;48.400;10.886;2023-07-31T01:16:12;96363.47;;;14.56;78.02
49451;BME280;35336;48.400;10.886;2023-07-31T01:16:27;96351.53;;;14.52;77.81
49451;BME280;35336;48.400;10.886;2023-07-31T01:16:43;96363.63;;;14.61;77.93
49451;BME280;35336;48.400;10.886;2023-07-31T01:16:58;96363.00;;;14.59;77.98
49451;BME280;35336;48.400;10.886;2023-07-31T01:17:13;96370.03;;;14.60;78.40
49451;BME280;35336;48.400;10.886;2023-07-31T01:17:31;96364.44;;;14.62;78.40
49451;BME280;35336;48.400;10.886;2023-07-31T01:17:48;96369.00;;;14.61;78.18
49451;BME280;35336;48.400;10.886;2023-07-31T01:18:04;96370.03;;;14.60;77.77
49451;BME280;35336;48.400;10.886;2023-07-31T01:18:19;96360.19;;;14.54;77.39
49451;BME280;35336;48.400;10.886;2023-07-31T01:18:34;96370.50;;;14.57;77.81
49451;BME280;35336;48.400;10.886;2023-07-31T01:18:49;96366.72;;;14.58;77.98
49451;BME280;35336;48.400;10.886;2023-07-31T01:19:08;96353.59;;;14.50;78.31
49451;BME280;35336;48.400;10.886;2023-07-31T01:19:25;96351.38;;;14.47;78.44
49451;BME280;35336;48.400;10.886;2023-07-31T01:19:46;96370.09;;;14.54;78.56
49451;BME280;35336;48.400;10.886;2023-07-31T01:20:04;96363.91;;;14.53;78.68
49451;BME280;35336;48.400;10.886;2023-07-31T01:20:24;96366.34;;;14.55;78.37
49451;BME280;35336;48.400;10.886;2023-07-31T01:20:42;96350.78;;;14.45;78.18
49451;BME280;35336;48.400;10.886;2023-07-31T01:21:06;96357.72;;;14.53;78.25
49451;BME280;35336;48.400;10.886;2023-07-31T01:24:29;96361.97;;;14.42;78.74
49451;BME280;35336;48.400;10.886;2023-07-31T01:25:21;96360.31;;;14.41;78.51
49451;BME280;35336;48.400;10.886;2023-07-31T01:26:19;96354.09;;;14.40;78.80
49451;BME280;35336;48.400;10.886;2023-07-31T01:26:39;96355.97;;;14.40;78.75
49451;BME280;35336;48.400;10.886;2023-07-31T01:27:01;96354.94;;;14.41;79.21
49451;BME280;35336;48.400;10.886;2023-07-31T01:27:23;96350.00;;;14.38;79.57
49451;BME280;35336;48.400;10.886;2023-07-31T01:27:46;96353.72;;;14.37;79.26
49451;BME280;35336;48.400;10.886;2023-07-31T01:28:12;96338.53;;;14.30;79.09
49451;BME280;35336;48.400;10.886;2023-07-31T01:29:47;96351.88;;;14.37;78.37
49451;BME280;35336;48.400;10.886;2023-07-31T01:30:16;96350.63;;;14.40;79.00
49451;BME280;35336;48.400;10.886;2023-07-31T01:30:37;96353.31;;;14.40;79.33
49451;BME280;35336;48.400;10.886;2023-07-31T01:30:57;96349.19;;;14.37;79.48
49451;BME280;35336;48.400;10.886;2023-07-31T01:31:21;96343.84;;;14.37;79.26
49451;BME280;35336;48.400;10.886;2023-07-31T01:31:40;96349.41;;;14.36;79.26
49451;BME280;35336;48.400;10.886;2023-07-31T01:32:01;96342.63;;;14.33;78.95
49451;BME280;35336;48.400;10.886;2023-07-31T01:32:17;96335.63;;;14.32;78.47
49451;BME280;35336;48.400;10.886;2023-07-31T01:32:36;96337.25;;;14.33;78.39
49451;BME280;35336;48.400;10.886;2023-07-31T01:32:54;96338.69;;;14.36;78.37
49451;BME280;35336;48.400;10.886;2023-07-31T01:33:11;96332.34;;;14.30;78.56
49451;BME280;35336;48.400;10.886;2023-07-31T01:33:26;96318.38;;;14.21;78.47
49451;BME280;35336;48.400;10.886;2023-07-31T01:33:42;96341.72;;;14.39;78.67
49451;BME280;35336;48.400;10.886;2023-07-31T01:34:00;96343.59;;;14.39;78.53
49451;BME280;35336;48.400;10.886;2023-07-31T01:34:19;96350.00;;;14.38;78.77
49451;BME280;35336;48.400;10.886;2023-07-31T01:34:36;96335.19;;;14.35;78.76
49451;BME280;35336;48.400;10.886;2023-07-31T01:34:52;96342.56;;;14.40;78.91
49451;BME280;35336;48.400;10.886;2023-07-31T01:35:08;96345.25;;;14.40;78.90
49451;BME280;35336;48.400;10.886;2023-07-31T01:35:24;96347.31;;;14.38;79.13
49451;BME280;35336;48.400;10.886;2023-07-31T01:35:43;96337.88;;;14.35;79.41
49451;BME280;35336;48.400;10.886;2023-07-31T01:35:59;96348.75;;;14.40;79.09
49451;BME280;35336;48.400;10.886;2023-07-31T01:36:14;96337.88;;;14.35;78.74
49451;BME280;35336;48.400;10.886;2023-07-31T01:36:32;96338.75;;;14.29;78.63
49451;BME280;35336;48.400;10.886;2023-07-31T01:36:50;96346.72;;;14.36;78.40
49451;BME280;35336;48.400;10.886;2023-07-31T01:37:05;96350.00;;;14.38;78.82
49451;BME280;35336;48.400;10.886;2023-07-31T01:37:20;96341.81;;;14.33;78.82
49451;BME280;35336;48.400;10.886;2023-07-31T01:37:38;96343.47;;;14.34;78.90
49451;BME280;35336;48.400;10.886;2023-07-31T01:37:56;96346.72;;;14.36;79.12
49451;BME280;35336;48.400;10.886;2023-07-31T01:38:11;96349.41;;;14.36;78.89